KBBD

Curtis Field Airport

Brady, Texas, USA
METAR KBBD 182335Z AUTO 13007KT 10SM FEW085 35/15 A2992 RMK AO2
Observed Flight Rules
Aug-18 @ 23:35 UTC (12 minutes ago) Visual Flight Rules
Wind Visibility Clouds
130° at 7 knots 10 miles
  • Few at 8,500' AGL
Temperatures Readings
Current 35°C / 95°F
Dewpoint 15°C / 59°F
Humidity 30%
Altimeter 29.92" Hg
Pressure 1013 hPa
Elevation 557
METAR KBBD 182335Z AUTO 13007KT 10SM FEW085 35/15 A2992 RMK AO2
Observed Flight Rules
Aug-18 @ 23:35 UTC
(12 minutes ago)
VFR
Wind Visibility
130° at 7 knots 10 miles
Clouds
  • Few at 8,500' AGL
Temperature Dewpoint
35°C / 95°F 15°C / 59°F
Humidity Altimeter Pressure
30% 29.92" Hg 1013 hPa